Time;durP1;ratioP1;P1;durP2;ratioP2;P2;SDS_P1;SDS_P2;PMS_P1;PMS_P2;Temp;Humidity;BMP_temperature;BMP_pressure;BME280_temperature;BME280_humidity;BME280_pressure;Samples;Min_cycle;Max_cycle;Signal;HPM_P1;HPM_P2
2023/04/22 05:02:32;;;;;;;;;44.00;33.50;;;;;;;;4943641;26;48658;-52
2023/04/22 05:04:57;;;;;;;;;46.50;37.75;;;;;;;;4955890;28;46106;-53
2023/04/22 05:07:23;;;;;;;;;46.25;35.50;;;;;;;;4960912;28;45424;-54
2023/04/22 05:09:48;;;;;;;;;42.75;35.00;;;;;;;;4963620;28;45337;-54
2023/04/22 05:12:14;;;;;;;;;44.50;36.75;;;;;;;;4959818;28;45935;-53
2023/04/22 05:14:40;;;;;;;;;40.75;33.75;;;;;;;;4960785;28;46070;-51
2023/04/22 05:17:07;;;;;;;;;36.75;33.75;;;;;;;;4959442;28;45346;-52
2023/04/22 05:19:32;;;;;;;;;45.00;37.50;;;;;;;;4955072;28;45476;-53
2023/04/22 05:21:57;;;;;;;;;47.75;39.00;;;;;;;;4960634;28;45496;-52
2023/04/22 05:24:23;;;;;;;;;39.25;35.00;;;;;;;;4961916;28;45396;-53
2023/04/22 05:26:48;;;;;;;;;45.00;36.75;;;;;;;;4960272;28;45469;-53
2023/04/22 05:29:13;;;;;;;;;46.50;38.00;;;;;;;;4959946;28;45444;-52
2023/04/22 05:31:38;;;;;;;;;45.50;38.00;;;;;;;;4960319;28;45362;-53
2023/04/22 05:34:03;;;;;;;;;40.50;34.75;;;;;;;;4958687;28;46135;-53
2023/04/22 05:36:30;;;;;;;;;45.00;34.50;;;;;;;;4951051;28;45416;-54
2023/04/22 05:38:55;;;;;;;;;41.50;36.75;;;;;;;;4956240;28;45376;-52
2023/04/22 05:41:21;;;;;;;;;48.50;38.75;;;;;;;;4959785;28;45319;-52
2023/04/22 05:43:46;;;;;;;;;48.50;39.25;;;;;;;;4959903;28;45436;-53
2023/04/22 05:46:11;;;;;;;;;45.50;38.00;;;;;;;;4964093;28;45601;-54
2023/04/22 05:48:36;;;;;;;;;43.75;37.00;;;;;;;;4963185;28;45614;-54
2023/04/22 05:51:01;;;;;;;;;46.00;36.50;;;;;;;;4959864;28;45520;-53
2023/04/22 05:53:27;;;;;;;;;45.00;37.50;;;;;;;;4964114;28;46385;-54
2023/04/22 05:55:52;;;;;;;;;38.75;35.00;;;;;;;;4955494;28;45440;-53
2023/04/22 05:58:17;;;;;;;;;40.00;35.50;;;;;;;;4959985;28;45507;-54
2023/04/22 06:00:42;;;;;;;;;42.75;36.75;;;;;;;;4959947;28;45361;-54
2023/04/22 06:03:08;;;;;;;;;40.50;35.75;;;;;;;;4959249;28;45218;-53
2023/04/22 06:05:33;;;;;;;;;41.50;34.25;;;;;;;;4960059;28;45450;-54
2023/04/22 06:07:58;;;;;;;;;42.50;36.25;;;;;;;;4960130;28;45536;-53
2023/04/22 06:10:23;;;;;;;;;46.50;39.25;;;;;;;;4957261;28;45429;-52
2023/04/22 06:12:49;;;;;;;;;47.50;40.25;;;;;;;;4959977;28;46044;-52
2023/04/22 06:15:14;;;;;;;;;49.75;38.00;;;;;;;;4959324;28;45285;-52
2023/04/22 06:17:39;;;;;;;;;52.50;41.50;;;;;;;;4961755;28;45325;-54
2023/04/22 06:20:05;;;;;;;;;47.25;40.00;;;;;;;;4960359;28;45542;-53
2023/04/22 06:22:30;;;;;;;;;48.25;39.00;;;;;;;;4960799;28;45304;-53
2023/04/22 06:24:55;;;;;;;;;50.25;37.00;;;;;;;;4961084;28;45558;-53
2023/04/22 06:27:21;;;;;;;;;56.50;42.25;;;;;;;;4959236;28;45495;-56
2023/04/22 06:29:46;;;;;;;;;49.50;41.50;;;;;;;;4958675;28;45316;-51
2023/04/22 06:32:11;;;;;;;;;47.25;37.00;;;;;;;;4965382;28;45449;-52
2023/04/22 06:34:37;;;;;;;;;48.00;39.50;;;;;;;;4961655;28;45277;-53
2023/04/22 06:37:02;;;;;;;;;47.75;38.25;;;;;;;;4960905;28;45443;-53
2023/04/22 06:39:28;;;;;;;;;47.75;38.00;;;;;;;;4960203;28;45298;-54
2023/04/22 06:41:53;;;;;;;;;47.25;39.00;;;;;;;;4958940;28;45436;-54
2023/04/22 06:44:18;;;;;;;;;47.75;36.75;;;;;;;;4959834;28;45373;-54
2023/04/22 06:46:43;;;;;;;;;42.50;36.50;;;;;;;;4957988;28;46159;-51
2023/04/22 06:49:08;;;;;;;;;51.75;41.50;;;;;;;;4958739;28;46831;-52
2023/04/22 06:51:34;;;;;;;;;47.25;38.50;;;;;;;;4958798;28;45487;-55
2023/04/22 06:53:59;;;;;;;;;37.25;33.50;;;;;;;;4961592;28;45431;-53
2023/04/22 06:56:24;;;;;;;;;48.50;40.25;;;;;;;;4958976;28;45561;-54
2023/04/22 06:58:49;;;;;;;;;53.50;39.25;;;;;;;;4958853;28;45469;-53
2023/04/22 07:01:15;;;;;;;;;46.25;38.00;;;;;;;;4958169;28;45772;-54
2023/04/22 07:03:40;;;;;;;;;43.00;38.00;;;;;;;;4956406;28;45490;-53
2023/04/22 07:06:06;;;;;;;;;47.00;37.50;;;;;;;;4960139;28;45347;-53
2023/04/22 07:08:31;;;;;;;;;45.50;37.25;;;;;;;;4961040;28;45363;-53
2023/04/22 07:10:56;;;;;;;;;47.50;39.25;;;;;;;;4958213;28;45503;-53
2023/04/22 07:13:22;;;;;;;;;47.75;39.50;;;;;;;;4960316;28;46296;-54
2023/04/22 07:15:47;;;;;;;;;48.75;40.75;;;;;;;;4959171;28;45456;-53
2023/04/22 07:18:12;;;;;;;;;50.25;38.50;;;;;;;;4960368;28;45388;-51
2023/04/22 07:20:37;;;;;;;;;50.75;41.00;;;;;;;;4956295;28;45219;-52
2023/04/22 07:23:02;;;;;;;;;45.00;35.25;;;;;;;;4955926;28;45445;-54
2023/04/22 07:25:28;;;;;;;;;49.25;39.25;;;;;;;;4958798;28;45440;-53
2023/04/22 07:27:53;;;;;;;;;49.75;40.75;;;;;;;;4959263;28;45389;-54
2023/04/22 07:30:18;;;;;;;;;51.75;42.00;;;;;;;;4957794;28;45368;-54
2023/04/22 07:32:43;;;;;;;;;50.25;41.25;;;;;;;;4958419;28;45277;-53
2023/04/22 07:35:08;;;;;;;;;50.50;41.25;;;;;;;;4961460;28;45408;-53
2023/04/22 07:37:34;;;;;;;;;49.75;38.25;;;;;;;;4956723;28;45473;-53
2023/04/22 07:39:59;;;;;;;;;49.50;39.50;;;;;;;;4958001;28;46178;-55
2023/04/22 07:42:24;;;;;;;;;47.00;39.25;;;;;;;;4957450;28;45437;-54
2023/04/22 07:44:49;;;;;;;;;47.00;38.25;;;;;;;;4958826;28;45407;-53
2023/04/22 07:47:15;;;;;;;;;46.75;38.50;;;;;;;;4967758;28;45530;-54
2023/04/22 07:49:42;;;;;;;;;47.75;39.25;;;;;;;;4957372;28;46202;-53
2023/04/22 07:52:07;;;;;;;;;54.75;42.75;;;;;;;;4954104;28;45571;-54
2023/04/22 07:54:32;;;;;;;;;48.25;39.50;;;;;;;;4952035;28;45487;-54
2023/04/22 07:56:57;;;;;;;;;51.75;40.75;;;;;;;;4959711;28;45317;-53
2023/04/22 07:59:23;;;;;;;;;49.25;42.00;;;;;;;;4959949;28;45405;-53
2023/04/22 08:01:48;;;;;;;;;53.00;39.75;;;;;;;;4957992;28;45428;-54
2023/04/22 08:04:13;;;;;;;;;47.00;37.25;;;;;;;;4961429;28;45296;-53
2023/04/22 08:06:38;;;;;;;;;47.75;40.75;;;;;;;;4961977;28;45424;-54
2023/04/22 08:09:03;;;;;;;;;54.00;43.00;;;;;;;;4956131;28;45437;-54
2023/04/22 08:11:29;;;;;;;;;52.50;42.25;;;;;;;;4960823;28;45314;-53
2023/04/22 08:13:54;;;;;;;;;50.75;42.75;;;;;;;;4958263;28;45475;-54
2023/04/22 08:16:19;;;;;;;;;52.75;41.00;;;;;;;;4960917;28;45543;-54
2023/04/22 08:18:44;;;;;;;;;50.25;39.50;;;;;;;;4961282;28;45413;-52
2023/04/22 08:21:11;;;;;;;;;47.00;39.00;;;;;;;;4959565;28;45527;-53
2023/04/22 08:23:36;;;;;;;;;45.25;38.75;;;;;;;;4962429;28;45508;-53
2023/04/22 08:26:02;;;;;;;;;43.50;36.50;;;;;;;;4959173;28;45507;-54
2023/04/22 08:28:27;;;;;;;;;48.50;41.75;;;;;;;;4960198;28;46447;-53
2023/04/22 08:30:52;;;;;;;;;38.25;35.00;;;;;;;;4961402;28;45311;-56
2023/04/22 08:33:17;;;;;;;;;35.00;31.75;;;;;;;;4961364;28;45838;-54
2023/04/22 08:35:43;;;;;;;;;25.67;25.67;;;;;;;;4961821;28;45429;-55
2023/04/22 08:38:08;;;;;;;;;40.00;35.75;;;;;;;;4959455;28;46340;-56
2023/04/22 08:40:33;;;;;;;;;37.50;32.25;;;;;;;;4961542;28;46587;-56
2023/04/22 08:42:59;;;;;;;;;45.67;35.00;;;;;;;;4950402;28;45464;-55
2023/04/22 08:45:24;;;;;;;;;38.33;34.00;;;;;;;;4963308;28;45409;-55
2023/04/22 08:47:50;;;;;;;;;37.75;34.00;;;;;;;;4960560;28;45271;-55
2023/04/22 08:50:15;;;;;;;;;35.33;32.67;;;;;;;;4958507;28;45299;-56
2023/04/22 08:52:41;;;;;;;;;40.33;34.00;;;;;;;;4962731;28;45577;-57
2023/04/22 08:55:06;;;;;;;;;48.00;40.75;;;;;;;;4964673;28;45530;-53
2023/04/22 08:57:32;;;;;;;;;49.75;42.50;;;;;;;;4960217;28;46220;-56
2023/04/22 08:59:58;;;;;;;;;52.75;44.00;;;;;;;;4957703;28;45492;-54
2023/04/22 09:02:23;;;;;;;;;53.50;43.50;;;;;;;;4958299;28;45451;-54
2023/04/22 09:04:49;;;;;;;;;53.00;44.50;;;;;;;;4959646;28;45672;-56
2023/04/22 09:07:20;;;;;;;;;63.75;46.25;;;;;;;;4961916;28;45458;-55
2023/04/22 09:09:45;;;;;;;;;58.50;46.25;;;;;;;;4956789;28;45448;-54
2023/04/22 09:12:10;;;;;;;;;50.50;41.00;;;;;;;;4961944;28;45319;-56
2023/04/22 09:14:35;;;;;;;;;50.50;42.00;;;;;;;;4962360;28;45251;-54
2023/04/22 09:17:01;;;;;;;;;49.50;42.00;;;;;;;;4967997;28;45478;-56
2023/04/22 09:19:27;;;;;;;;;55.75;43.75;;;;;;;;4965148;28;45631;-54
2023/04/22 09:21:52;;;;;;;;;50.75;42.50;;;;;;;;4963608;28;45238;-55
2023/04/22 09:24:19;;;;;;;;;51.50;43.00;;;;;;;;4966091;28;45330;-56
2023/04/22 09:26:45;;;;;;;;;54.25;44.25;;;;;;;;4962981;28;47178;-57
2023/04/22 09:29:14;;;;;;;;;51.25;42.25;;;;;;;;4962910;28;46840;-55
2023/04/22 09:31:39;;;;;;;;;51.25;40.75;;;;;;;;4959814;28;45294;-57
2023/04/22 09:34:05;;;;;;;;;54.75;43.50;;;;;;;;4960093;28;45944;-57
2023/04/22 09:36:39;;;;;;;;;54.75;43.00;;;;;;;;4959868;28;46038;-53
2023/04/22 09:39:08;;;;;;;;;51.50;42.75;;;;;;;;4965225;28;45235;-53
2023/04/22 09:41:34;;;;;;;;;55.25;43.25;;;;;;;;4965961;28;45408;-54
2023/04/22 09:44:00;;;;;;;;;52.50;43.00;;;;;;;;4964432;28;45568;-53
2023/04/22 09:46:26;;;;;;;;;54.00;43.25;;;;;;;;4952097;28;47078;-54
2023/04/22 09:48:52;;;;;;;;;53.00;43.00;;;;;;;;4968181;28;45612;-54
2023/04/22 09:51:18;;;;;;;;;53.25;43.25;;;;;;;;4955719;28;45379;-53
2023/04/22 09:53:43;;;;;;;;;53.25;43.75;;;;;;;;4964978;28;45283;-54
2023/04/22 09:56:09;;;;;;;;;48.75;39.50;;;;;;;;4959399;28;46263;-55
2023/04/22 09:58:41;;;;;;;;;50.00;42.25;;;;;;;;4966884;28;45211;-56
2023/04/22 10:01:07;;;;;;;;;49.00;40.00;;;;;;;;4960912;28;45536;-55
2023/04/22 10:03:32;;;;;;;;;52.50;44.00;;;;;;;;4955350;28;45480;-55
2023/04/22 10:05:57;;;;;;;;;51.00;42.00;;;;;;;;4964844;28;46015;-55
2023/04/22 10:08:23;;;;;;;;;48.50;41.00;;;;;;;;4962669;28;45449;-55
2023/04/22 10:10:48;;;;;;;;;51.75;42.50;;;;;;;;4961525;28;45529;-57
2023/04/22 10:13:14;;;;;;;;;47.25;40.00;;;;;;;;4957305;28;45520;-57
2023/04/22 10:15:41;;;;;;;;;51.25;41.75;;;;;;;;4960023;28;45194;-57
2023/04/22 10:18:11;;;;;;;;;52.50;43.00;;;;;;;;4958511;28;45446;-55
2023/04/22 10:20:38;;;;;;;;;45.00;38.50;;;;;;;;4962697;28;45493;-56
2023/04/22 10:23:04;;;;;;;;;50.25;39.50;;;;;;;;4956267;28;45429;-56
2023/04/22 10:25:30;;;;;;;;;45.75;37.75;;;;;;;;4955497;28;45505;-55
2023/04/22 10:28:01;;;;;;;;;43.75;37.75;;;;;;;;4958704;28;45340;-56
2023/04/22 10:30:28;;;;;;;;;47.33;39.00;;;;;;;;4957906;28;45461;-54
2023/04/22 10:32:53;;;;;;;;;45.75;37.25;;;;;;;;4959853;28;45503;-55
2023/04/22 10:35:25;;;;;;;;;41.50;34.50;;;;;;;;4958763;28;46204;-55
2023/04/22 10:37:51;;;;;;;;;44.00;37.00;;;;;;;;4959707;28;45334;-56
2023/04/22 10:40:17;;;;;;;;;48.00;36.50;;;;;;;;4956622;28;46005;-55
2023/04/22 10:42:50;;;;;;;;;38.33;34.67;;;;;;;;4949182;28;45405;-56
2023/04/22 10:45:15;;;;;;;;;38.33;34.00;;;;;;;;4961331;28;46214;-55
2023/04/22 10:47:41;;;;;;;;;40.00;33.00;;;;;;;;4958628;28;45484;-56
2023/04/22 10:50:12;;;;;;;;;43.67;35.00;;;;;;;;4959272;28;45347;-56
2023/04/22 10:52:38;;;;;;;;;38.33;34.67;;;;;;;;4949138;28;45524;-56
2023/04/22 10:55:04;;;;;;;;;36.00;31.00;;;;;;;;4959276;28;45495;-56
2023/04/22 10:57:36;;;;;;;;;36.00;33.67;;;;;;;;4961425;28;45370;-56
2023/04/22 11:00:14;;;;;;;;;36.67;33.00;;;;;;;;4961580;28;45474;-56
2023/04/22 11:02:40;;;;;;;;;27.33;27.00;;;;;;;;4957042;28;45380;-56
2023/04/22 11:05:21;;;;;;;;;33.00;31.00;;;;;;;;4961058;28;46396;-56
2023/04/22 11:07:48;;;;;;;;;31.67;30.67;;;;;;;;4959425;28;45752;-56
2023/04/22 11:10:29;;;;;;;;;29.33;26.67;;;;;;;;4958439;28;45322;-55
2023/04/22 11:12:54;;;;;;;;;27.33;26.00;;;;;;;;4957735;28;45569;-55
2023/04/22 11:15:21;;;;;;;;;28.00;22.33;;;;;;;;4960291;28;45476;-55
2023/04/22 11:17:47;;;;;;;;;33.33;29.00;;;;;;;;4954823;28;45435;-57
2023/04/22 11:20:13;;;;;;;;;31.67;28.33;;;;;;;;4953722;28;45724;-56
2023/04/22 11:22:40;;;;;;;;;26.00;23.67;;;;;;;;4966559;28;45378;-56
2023/04/22 11:25:07;;;;;;;;;27.33;26.67;;;;;;;;4958448;28;45460;-56
2023/04/22 11:27:32;;;;;;;;;34.33;29.33;;;;;;;;4967109;28;45537;-56
2023/04/22 11:30:00;;;;;;;;;28.00;26.33;;;;;;;;4958383;28;45412;-56
2023/04/22 11:32:26;;;;;;;;;27.33;26.33;;;;;;;;4960235;28;45302;-57
2023/04/22 11:34:51;;;;;;;;;32.00;30.67;;;;;;;;4962406;28;45669;-56
2023/04/22 11:37:20;;;;;;;;;26.67;25.33;;;;;;;;4958346;28;45601;-57
2023/04/22 11:39:45;;;;;;;;;27.00;23.67;;;;;;;;4963085;28;45342;-57
2023/04/22 11:42:13;;;;;;;;;20.00;17.67;;;;;;;;4961911;28;45370;-56
2023/04/22 11:44:39;;;;;;;;;27.33;22.33;;;;;;;;4962708;28;45379;-56
2023/04/22 11:47:04;;;;;;;;;21.67;21.33;;;;;;;;4963965;28;45207;-56
2023/04/22 11:49:31;;;;;;;;;16.33;14.00;;;;;;;;4965980;28;45286;-56
2023/04/22 11:51:57;;;;;;;;;25.00;23.00;;;;;;;;4957022;28;45633;-57
2023/04/22 11:54:32;;;;;;;;;22.33;22.00;;;;;;;;4958520;28;46142;-54
2023/04/22 11:57:01;;;;;;;;;24.33;22.33;;;;;;;;4961947;28;45512;-55
2023/04/22 11:59:27;;;;;;;;;21.00;19.33;;;;;;;;4964325;28;45800;-54
2023/04/22 12:01:52;;;;;;;;;23.67;23.67;;;;;;;;4961604;28;45579;-55
2023/04/22 12:04:20;;;;;;;;;23.67;22.33;;;;;;;;4962783;28;46226;-56
2023/04/22 12:06:45;;;;;;;;;22.67;21.33;;;;;;;;4963890;28;45617;-55
2023/04/22 12:09:11;;;;;;;;;22.67;22.67;;;;;;;;4955471;28;45444;-57
2023/04/22 12:11:37;;;;;;;;;19.00;19.00;;;;;;;;4958550;28;45633;-58
2023/04/22 12:14:05;;;;;;;;;27.00;25.33;;;;;;;;4958506;28;46883;-56
2023/04/22 12:16:38;;;;;;;;;23.33;23.33;;;;;;;;4957675;28;45726;-58
2023/04/22 12:19:04;;;;;;;;;30.67;25.00;;;;;;;;4960267;28;45417;-58
2023/04/22 12:21:31;;;;;;;;;26.67;23.00;;;;;;;;4969610;28;45640;-57
2023/04/22 12:23:59;;;;;;;;;27.00;24.33;;;;;;;;4967406;28;45387;-58
2023/04/22 12:26:25;;;;;;;;;30.33;23.67;;;;;;;;4963073;28;45564;-57
2023/04/22 12:28:51;;;;;;;;;19.00;16.33;;;;;;;;4961814;28;45270;-58
2023/04/22 12:31:17;;;;;;;;;25.00;24.33;;;;;;;;4966741;28;45497;-58
2023/04/22 12:33:43;;;;;;;;;29.33;25.00;;;;;;;;4961832;28;46967;-58
2023/04/22 12:36:08;;;;;;;;;27.67;24.67;;;;;;;;4966378;28;45349;-58
2023/04/22 12:38:33;;;;;;;;;25.00;22.00;;;;;;;;4961132;28;45401;-58
2023/04/22 12:40:59;;;;;;;;;28.00;28.00;;;;;;;;4963227;28;45520;-58
2023/04/22 12:43:24;;;;;;;;;18.67;18.67;;;;;;;;4963311;28;45857;-58
2023/04/22 12:45:50;;;;;;;;;29.67;25.00;;;;;;;;4961253;28;45581;-58
2023/04/22 12:48:15;;;;;;;;;30.00;27.67;;;;;;;;4965759;28;45389;-58
2023/04/22 12:50:40;;;;;;;;;33.00;30.33;;;;;;;;4966430;28;45411;-58
2023/04/22 12:53:05;;;;;;;;;25.33;24.33;;;;;;;;4965065;28;45292;-58
2023/04/22 12:55:31;;;;;;;;;36.67;28.33;;;;;;;;4956395;28;45828;-57
2023/04/22 12:57:56;;;;;;;;;26.33;24.67;;;;;;;;4943954;28;45484;-58
2023/04/22 13:00:21;;;;;;;;;28.50;25.25;;;;;;;;4910204;28;1163573;-58
2023/04/22 13:02:47;;;;;;;;;23.67;21.67;;;;;;;;4962772;28;46472;-58
2023/04/22 13:05:13;;;;;;;;;30.00;27.00;;;;;;;;4960382;28;45424;-58
2023/04/22 13:07:39;;;;;;;;;27.67;27.67;;;;;;;;4961078;28;45311;-58
2023/04/22 13:10:05;;;;;;;;;27.00;25.67;;;;;;;;4959002;28;45520;-58
2023/04/22 13:12:30;;;;;;;;;32.67;27.67;;;;;;;;4960903;28;46620;-58
2023/04/22 13:14:55;;;;;;;;;23.67;21.67;;;;;;;;4960736;28;45714;-58
2023/04/22 13:17:21;;;;;;;;;28.00;27.67;;;;;;;;4957168;28;45457;-58
2023/04/22 13:19:46;;;;;;;;;26.00;22.67;;;;;;;;4964619;28;45461;-57
2023/04/22 13:22:12;;;;;;;;;24.67;24.00;;;;;;;;4960781;28;45901;-57
2023/04/22 13:24:37;;;;;;;;;23.67;20.33;;;;;;;;4963371;28;45413;-57
2023/04/22 13:27:02;;;;;;;;;25.33;19.67;;;;;;;;4957358;28;45401;-58
2023/04/22 13:29:27;;;;;;;;;22.00;20.67;;;;;;;;4956701;28;45452;-58
2023/04/22 13:31:52;;;;;;;;;24.67;21.33;;;;;;;;4963362;28;45616;-58
2023/04/22 13:34:18;;;;;;;;;29.33;25.00;;;;;;;;4960763;28;45367;-58
2023/04/22 13:36:43;;;;;;;;;17.67;17.67;;;;;;;;4964822;28;45341;-57
2023/04/22 13:39:08;;;;;;;;;22.67;22.67;;;;;;;;4955768;28;45444;-58
2023/04/22 13:41:34;;;;;;;;;23.67;22.00;;;;;;;;4964097;28;46303;-58
2023/04/22 13:44:00;;;;;;;;;27.00;26.00;;;;;;;;4952762;28;45454;-57
2023/04/22 13:46:26;;;;;;;;;21.67;20.00;;;;;;;;4963290;28;45247;-58
2023/04/22 13:48:51;;;;;;;;;27.33;25.00;;;;;;;;4953120;28;45415;-57
2023/04/22 13:51:17;;;;;;;;;22.33;22.33;;;;;;;;4960002;28;46224;-58
2023/04/22 13:53:42;;;;;;;;;24.33;21.67;;;;;;;;4960059;28;45150;-57
2023/04/22 13:56:07;;;;;;;;;24.67;22.67;;;;;;;;4954309;28;45326;-57
2023/04/22 13:58:32;;;;;;;;;19.33;19.33;;;;;;;;4956328;28;45504;-59
2023/04/22 14:00:57;;;;;;;;;24.33;21.67;;;;;;;;4959558;28;45415;-54
2023/04/22 14:03:23;;;;;;;;;24.33;23.00;;;;;;;;4954338;28;45808;-56
2023/04/22 14:05:48;;;;;;;;;19.33;17.00;;;;;;;;4960300;28;45425;-56
2023/04/22 14:08:13;;;;;;;;;25.00;20.67;;;;;;;;4956667;28;45556;-56
2023/04/22 14:10:38;;;;;;;;;23.00;20.33;;;;;;;;4951951;28;45986;-56
2023/04/22 14:13:03;;;;;;;;;18.00;17.00;;;;;;;;4953671;28;45431;-56
2023/04/22 14:15:29;;;;;;;;;22.00;20.00;;;;;;;;4959499;28;45492;-56
2023/04/22 14:17:54;;;;;;;;;19.33;17.33;;;;;;;;4954252;28;45566;-56
2023/04/22 14:20:20;;;;;;;;;23.33;22.33;;;;;;;;4958888;28;45508;-56
2023/04/22 14:22:45;;;;;;;;;19.67;17.67;;;;;;;;4955965;28;45468;-56
2023/04/22 14:25:10;;;;;;;;;23.00;21.33;;;;;;;;4957774;28;45301;-56
2023/04/22 14:27:35;;;;;;;;;22.33;18.67;;;;;;;;4955630;28;45528;-56
2023/04/22 14:30:03;;;;;;;;;17.67;17.33;;;;;;;;4956893;28;46446;-56
2023/04/22 14:32:28;;;;;;;;;16.67;16.00;;;;;;;;4955122;28;45812;-56
2023/04/22 14:34:53;;;;;;;;;19.00;16.00;;;;;;;;4959246;28;45369;-56
2023/04/22 14:37:18;;;;;;;;;14.00;13.67;;;;;;;;4955213;28;45569;-56
2023/04/22 14:39:43;;;;;;;;;13.33;12.00;;;;;;;;4957696;28;46316;-56
2023/04/22 14:42:09;;;;;;;;;10.67;10.67;;;;;;;;4955196;28;45521;-56
2023/04/22 14:44:34;;;;;;;;;12.33;10.67;;;;;;;;4952192;28;45548;-57
2023/04/22 14:46:59;;;;;;;;;9.67;9.33;;;;;;;;4959470;28;45655;-56
2023/04/22 14:49:24;;;;;;;;;13.00;13.00;;;;;;;;4950133;28;45956;-57
2023/04/22 14:51:50;;;;;;;;;10.67;10.33;;;;;;;;4954482;28;45611;-56
2023/04/22 14:54:15;;;;;;;;;12.00;12.00;;;;;;;;4957206;28;45298;-57
2023/04/22 14:56:40;;;;;;;;;12.00;11.67;;;;;;;;4955637;28;45411;-56
2023/04/22 14:59:05;;;;;;;;;10.67;10.00;;;;;;;;4958353;28;45339;-56
2023/04/22 15:01:31;;;;;;;;;10.33;9.00;;;;;;;;4958094;28;45423;-56
2023/04/22 15:03:56;;;;;;;;;12.67;7.67;;;;;;;;4958715;28;45396;-56
2023/04/22 15:06:22;;;;;;;;;9.67;9.00;;;;;;;;4958739;28;45477;-56
2023/04/22 15:08:47;;;;;;;;;10.00;10.00;;;;;;;;4958740;28;45540;-56
2023/04/22 15:11:12;;;;;;;;;10.33;10.33;;;;;;;;4958456;28;45334;-56
2023/04/22 15:13:37;;;;;;;;;10.33;10.33;;;;;;;;4962184;28;45488;-56
2023/04/22 15:16:03;;;;;;;;;3.67;3.67;;;;;;;;4961770;28;45537;-56
2023/04/22 15:18:28;;;;;;;;;11.00;11.00;;;;;;;;4962202;28;45269;-57
2023/04/22 15:20:53;;;;;;;;;8.00;8.00;;;;;;;;4962105;28;45339;-57
2023/04/22 15:23:18;;;;;;;;;9.67;6.33;;;;;;;;4959882;28;45401;-56
2023/04/22 15:25:44;;;;;;;;;8.00;7.67;;;;;;;;4955585;28;45269;-56
2023/04/22 15:28:09;;;;;;;;;8.33;8.33;;;;;;;;4961539;28;45594;-57
2023/04/22 15:30:34;;;;;;;;;7.00;7.00;;;;;;;;4958494;28;45364;-57
2023/04/22 15:32:59;;;;;;;;;7.67;7.67;;;;;;;;4962018;28;45482;-57
2023/04/22 15:35:25;;;;;;;;;9.00;8.00;;;;;;;;4961875;28;45355;-57
2023/04/22 15:37:51;;;;;;;;;7.33;7.33;;;;;;;;4961905;28;45416;-57
2023/04/22 15:40:16;;;;;;;;;6.67;6.67;;;;;;;;4961627;28;45339;-57
2023/04/22 15:42:41;;;;;;;;;6.00;6.00;;;;;;;;4958582;28;45772;-56
2023/04/22 15:45:07;;;;;;;;;6.00;6.00;;;;;;;;4961372;28;45484;-57
2023/04/22 15:47:32;;;;;;;;;6.33;6.33;;;;;;;;4962066;28;45436;-57
2023/04/22 15:50:04;;;;;;;;;7.33;5.33;;;;;;;;4961980;28;45302;-57
2023/04/22 15:52:29;;;;;;;;;8.67;5.33;;;;;;;;4961844;28;45332;-57
2023/04/22 15:54:55;;;;;;;;;7.00;7.00;;;;;;;;4960425;28;45613;-57
2023/04/22 15:57:20;;;;;;;;;9.67;8.67;;;;;;;;4961735;28;45362;-57
2023/04/22 15:59:45;;;;;;;;;10.00;10.00;;;;;;;;4958249;28;45485;-57
2023/04/22 16:02:10;;;;;;;;;6.33;6.00;;;;;;;;4959007;28;45820;-56
2023/04/22 16:04:36;;;;;;;;;12.00;8.33;;;;;;;;4956048;28;45765;-57
2023/04/22 16:07:01;;;;;;;;;9.67;8.00;;;;;;;;4972722;28;45448;-57
2023/04/22 16:09:26;;;;;;;;;11.33;8.00;;;;;;;;4966029;28;45251;-57
2023/04/22 16:11:52;;;;;;;;;8.33;8.33;;;;;;;;4970607;28;45450;-57
2023/04/22 16:14:17;;;;;;;;;8.33;7.00;;;;;;;;4978701;28;45588;-57
2023/04/22 16:16:43;;;;;;;;;7.67;7.67;;;;;;;;4975696;28;46208;-57
2023/04/22 16:19:08;;;;;;;;;6.00;6.00;;;;;;;;4978144;28;45334;-57
2023/04/22 16:21:33;;;;;;;;;10.67;8.00;;;;;;;;4957645;28;45473;-56
2023/04/22 16:23:59;;;;;;;;;7.00;7.00;;;;;;;;4969485;28;45474;-57
2023/04/22 16:26:24;;;;;;;;;6.33;5.67;;;;;;;;4977996;28;47020;-57
2023/04/22 16:28:50;;;;;;;;;10.00;8.00;;;;;;;;4980191;28;45323;-56
2023/04/22 16:31:17;;;;;;;;;7.00;7.00;;;;;;;;4978436;28;45438;-57
2023/04/22 16:33:42;;;;;;;;;9.00;7.00;;;;;;;;4980138;28;45511;-57
2023/04/22 16:36:08;;;;;;;;;3.33;3.33;;;;;;;;4977894;28;47249;-56
2023/04/22 16:38:33;;;;;;;;;3.00;3.00;;;;;;;;4968314;28;45487;-57
2023/04/22 16:40:59;;;;;;;;;5.00;5.00;;;;;;;;4964807;28;45284;-57
2023/04/22 16:43:24;;;;;;;;;6.00;6.00;;;;;;;;4971059;28;45359;-57
2023/04/22 16:45:49;;;;;;;;;7.00;6.00;;;;;;;;4971982;28;45927;-57
2023/04/22 16:48:14;;;;;;;;;5.00;5.00;;;;;;;;4967604;28;45291;-57
2023/04/22 16:50:40;;;;;;;;;7.33;6.33;;;;;;;;4970988;28;45366;-57
2023/04/22 16:53:07;;;;;;;;;5.33;5.33;;;;;;;;4972476;28;45639;-56
2023/04/22 16:55:32;;;;;;;;;6.67;6.67;;;;;;;;4963899;28;46176;-57
2023/04/22 16:58:01;;;;;;;;;6.00;6.00;;;;;;;;4959218;28;45638;-57
2023/04/22 17:00:26;;;;;;;;;6.00;4.67;;;;;;;;4960511;28;45444;-57
2023/04/22 17:02:51;;;;;;;;;7.00;3.67;;;;;;;;4958393;28;45560;-57
2023/04/22 17:05:17;;;;;;;;;7.00;6.67;;;;;;;;4956637;28;46065;-57
2023/04/22 17:07:42;;;;;;;;;7.00;7.00;;;;;;;;4955119;28;45429;-57
2023/04/22 17:10:07;;;;;;;;;6.33;6.33;;;;;;;;4954695;28;45465;-57
2023/04/22 17:12:32;;;;;;;;;5.33;5.33;;;;;;;;4958305;28;45574;-57
2023/04/22 17:14:58;;;;;;;;;5.67;5.67;;;;;;;;4956118;28;46243;-58
2023/04/22 17:17:23;;;;;;;;;6.00;4.00;;;;;;;;4957574;28;45400;-58
2023/04/22 17:19:48;;;;;;;;;4.67;4.67;;;;;;;;4956678;28;45199;-57
2023/04/22 17:22:13;;;;;;;;;5.67;5.67;;;;;;;;4960391;28;45677;-56
2023/04/22 17:24:39;;;;;;;;;6.67;5.67;;;;;;;;4958101;28;46945;-52
2023/04/22 17:27:04;;;;;;;;;4.33;4.00;;;;;;;;4961013;28;45358;-52
2023/04/22 17:29:29;;;;;;;;;6.67;6.67;;;;;;;;4959899;28;45313;-52
2023/04/22 17:31:55;;;;;;;;;4.33;4.33;;;;;;;;4958320;28;45357;-51
2023/04/22 17:34:20;;;;;;;;;7.00;6.67;;;;;;;;4960450;28;45429;-54
2023/04/22 17:36:45;;;;;;;;;5.00;5.00;;;;;;;;4960830;28;45393;-50
2023/04/22 17:39:10;;;;;;;;;4.33;4.33;;;;;;;;4961596;28;45442;-53
2023/04/22 17:41:36;;;;;;;;;7.00;5.33;;;;;;;;4960144;28;45325;-49
2023/04/22 17:44:01;;;;;;;;;6.67;5.33;;;;;;;;4962618;28;46080;-51
2023/04/22 17:46:26;;;;;;;;;6.33;3.33;;;;;;;;4965674;28;45383;-51
2023/04/22 17:48:51;;;;;;;;;4.00;4.00;;;;;;;;4962439;28;45208;-51
2023/04/22 17:51:17;;;;;;;;;6.00;6.00;;;;;;;;4962172;28;45235;-51
2023/04/22 17:53:42;;;;;;;;;4.00;4.00;;;;;;;;4961250;28;45397;-51
2023/04/22 17:56:07;;;;;;;;;5.00;5.00;;;;;;;;4959986;28;45337;-50
2023/04/22 17:58:37;;;;;;;;;5.00;5.00;;;;;;;;4962542;28;45460;-51
2023/04/22 18:01:03;;;;;;;;;7.00;5.67;;;;;;;;4960569;28;45616;-50
2023/04/22 18:03:28;;;;;;;;;8.67;7.00;;;;;;;;4956100;28;46021;-48
2023/04/22 18:05:53;;;;;;;;;7.00;7.00;;;;;;;;4959439;28;45299;-49
2023/04/22 18:08:18;;;;;;;;;7.00;6.00;;;;;;;;4957090;28;45453;-51
2023/04/22 18:10:43;;;;;;;;;5.67;5.67;;;;;;;;4950032;28;45539;-52
2023/04/22 18:13:09;;;;;;;;;7.00;7.00;;;;;;;;4955170;28;46099;-52
2023/04/22 18:15:34;;;;;;;;;9.33;8.67;;;;;;;;4959552;28;45413;-50
2023/04/22 18:18:00;;;;;;;;;5.00;5.00;;;;;;;;4960262;28;45546;-48
2023/04/22 18:20:25;;;;;;;;;7.33;7.33;;;;;;;;4959805;28;45496;-48
2023/04/22 18:22:50;;;;;;;;;6.33;6.33;;;;;;;;4956909;28;46294;-49
2023/04/22 18:25:16;;;;;;;;;7.33;7.33;;;;;;;;4959378;28;46027;-53
2023/04/22 18:27:42;;;;;;;;;7.00;5.00;;;;;;;;4959883;28;45306;-50
2023/04/22 18:30:07;;;;;;;;;11.33;7.67;;;;;;;;4955183;28;45457;-49
2023/04/22 18:32:32;;;;;;;;;7.67;7.00;;;;;;;;4963487;28;45341;-49
2023/04/22 18:34:57;;;;;;;;;10.67;9.67;;;;;;;;4956632;28;45537;-52
2023/04/22 18:37:23;;;;;;;;;8.00;8.00;;;;;;;;4955395;28;45782;-52
2023/04/22 18:39:48;;;;;;;;;9.67;8.00;;;;;;;;4957011;28;45454;-51
2023/04/22 18:42:14;;;;;;;;;10.33;9.00;;;;;;;;4952702;28;47183;-49
2023/04/22 18:44:39;;;;;;;;;11.00;9.67;;;;;;;;4953589;28;45595;-48
2023/04/22 18:47:04;;;;;;;;;8.33;8.33;;;;;;;;4957163;28;45530;-50
2023/04/22 18:49:32;;;;;;;;;8.00;6.67;;;;;;;;4959632;28;45376;-49
2023/04/22 18:51:57;;;;;;;;;8.67;8.00;;;;;;;;4953790;28;45451;-52
2023/04/22 18:54:22;;;;;;;;;6.33;6.33;;;;;;;;4959201;28;45357;-47
2023/04/22 18:56:48;;;;;;;;;6.33;6.33;;;;;;;;4954900;28;45586;-48
2023/04/22 18:59:13;;;;;;;;;6.67;6.33;;;;;;;;4955812;28;45428;-49
2023/04/22 19:01:38;;;;;;;;;6.67;6.67;;;;;;;;4958434;28;45390;-47
2023/04/22 19:04:03;;;;;;;;;7.00;7.00;;;;;;;;4955701;28;45641;-46
2023/04/22 19:06:29;;;;;;;;;6.33;6.00;;;;;;;;4959276;28;45227;-51
2023/04/22 19:08:54;;;;;;;;;12.00;8.33;;;;;;;;4956851;28;45556;-50
2023/04/22 19:11:20;;;;;;;;;6.00;6.00;;;;;;;;4956811;28;46110;-50
2023/04/22 19:13:45;;;;;;;;;8.33;8.33;;;;;;;;4959593;28;45344;-51
2023/04/22 19:16:10;;;;;;;;;6.67;6.67;;;;;;;;4958827;28;45428;-48